sensor_id;sensor_type;location;lat;lon;timestamp;temperature;humidity
254;DHT22;590;48.772;8.846;2023-09-08T00:01:38;16.20;78.50
254;DHT22;590;48.772;8.846;2023-09-08T00:04:06;16.10;78.10
254;DHT22;590;48.772;8.846;2023-09-08T00:06:35;16.10;78.30
254;DHT22;590;48.772;8.846;2023-09-08T00:09:04;16.00;78.40
254;DHT22;590;48.772;8.846;2023-09-08T00:11:32;16.00;79.70
254;DHT22;590;48.772;8.846;2023-09-08T00:14:00;16.00;79.40
254;DHT22;590;48.772;8.846;2023-09-08T00:16:30;15.90;78.80
254;DHT22;590;48.772;8.846;2023-09-08T00:18:58;15.90;79.50
254;DHT22;590;48.772;8.846;2023-09-08T00:21:27;15.90;81.00
254;DHT22;590;48.772;8.846;2023-09-08T00:23:55;15.80;80.70
254;DHT22;590;48.772;8.846;2023-09-08T00:26:24;15.80;80.80
254;DHT22;590;48.772;8.846;2023-09-08T00:28:52;15.80;81.60
254;DHT22;590;48.772;8.846;2023-09-08T00:31:21;15.80;82.10
254;DHT22;590;48.772;8.846;2023-09-08T00:33:49;15.80;82.70
254;DHT22;590;48.772;8.846;2023-09-08T00:36:17;15.90;84.60
254;DHT22;590;48.772;8.846;2023-09-08T00:38:45;15.90;85.60
254;DHT22;590;48.772;8.846;2023-09-08T00:41:13;16.00;85.60
254;DHT22;590;48.772;8.846;2023-09-08T00:43:43;16.00;85.90
254;DHT22;590;48.772;8.846;2023-09-08T00:46:11;16.00;85.90
254;DHT22;590;48.772;8.846;2023-09-08T00:48:40;16.00;85.90
254;DHT22;590;48.772;8.846;2023-09-08T00:51:09;15.90;85.80
254;DHT22;590;48.772;8.846;2023-09-08T00:53:37;15.90;85.60
254;DHT22;590;48.772;8.846;2023-09-08T00:56:05;15.80;83.90
254;DHT22;590;48.772;8.846;2023-09-08T00:58:34;15.80;83.10
254;DHT22;590;48.772;8.846;2023-09-08T01:01:04;15.70;81.30
254;DHT22;590;48.772;8.846;2023-09-08T01:03:33;15.60;82.10
254;DHT22;590;48.772;8.846;2023-09-08T01:06:01;15.60;82.80
254;DHT22;590;48.772;8.846;2023-09-08T01:08:30;15.60;82.30
254;DHT22;590;48.772;8.846;2023-09-08T01:10:59;15.60;84.00
254;DHT22;590;48.772;8.846;2023-09-08T01:13:27;15.60;84.60
254;DHT22;590;48.772;8.846;2023-09-08T01:15:55;15.60;84.70
254;DHT22;590;48.772;8.846;2023-09-08T01:18:25;15.60;83.90
254;DHT22;590;48.772;8.846;2023-09-08T01:21:06;15.50;83.70
254;DHT22;590;48.772;8.846;2023-09-08T01:23:49;15.50;83.50
254;DHT22;590;48.772;8.846;2023-09-08T01:26:26;15.40;82.90
254;DHT22;590;48.772;8.846;2023-09-08T01:28:55;15.30;82.00
254;DHT22;590;48.772;8.846;2023-09-08T01:31:23;15.30;82.30
254;DHT22;590;48.772;8.846;2023-09-08T01:33:52;15.20;82.40
254;DHT22;590;48.772;8.846;2023-09-08T01:36:20;15.20;82.10
254;DHT22;590;48.772;8.846;2023-09-08T01:38:48;15.10;81.30
254;DHT22;590;48.772;8.846;2023-09-08T01:41:16;15.10;83.40
254;DHT22;590;48.772;8.846;2023-09-08T01:43:45;15.20;85.00
254;DHT22;590;48.772;8.846;2023-09-08T01:46:13;15.20;85.00
254;DHT22;590;48.772;8.846;2023-09-08T01:48:41;15.30;83.50
254;DHT22;590;48.772;8.846;2023-09-08T01:51:09;15.30;82.80
254;DHT22;590;48.772;8.846;2023-09-08T01:53:37;15.30;81.90
254;DHT22;590;48.772;8.846;2023-09-08T01:56:07;15.30;82.10
254;DHT22;590;48.772;8.846;2023-09-08T01:58:35;15.20;82.00
254;DHT22;590;48.772;8.846;2023-09-08T02:01:05;15.20;82.60
254;DHT22;590;48.772;8.846;2023-09-08T02:03:33;15.20;82.60
254;DHT22;590;48.772;8.846;2023-09-08T02:06:01;15.20;83.30
254;DHT22;590;48.772;8.846;2023-09-08T02:08:29;15.20;83.20
254;DHT22;590;48.772;8.846;2023-09-08T02:10:57;15.10;83.90
254;DHT22;590;48.772;8.846;2023-09-08T02:13:25;15.10;84.30
254;DHT22;590;48.772;8.846;2023-09-08T02:15:53;15.10;84.00
254;DHT22;590;48.772;8.846;2023-09-08T02:18:22;15.20;83.90
254;DHT22;590;48.772;8.846;2023-09-08T02:20:51;15.10;83.80
254;DHT22;590;48.772;8.846;2023-09-08T02:23:19;15.00;82.90
254;DHT22;590;48.772;8.846;2023-09-08T02:25:47;14.90;80.30
254;DHT22;590;48.772;8.846;2023-09-08T02:28:15;14.90;81.20
254;DHT22;590;48.772;8.846;2023-09-08T02:30:43;14.80;82.10
254;DHT22;590;48.772;8.846;2023-09-08T02:33:12;14.80;83.10
254;DHT22;590;48.772;8.846;2023-09-08T02:35:41;14.80;84.20
254;DHT22;590;48.772;8.846;2023-09-08T02:38:09;14.80;84.40
254;DHT22;590;48.772;8.846;2023-09-08T02:40:37;14.80;83.70
254;DHT22;590;48.772;8.846;2023-09-08T02:43:05;14.70;83.90
254;DHT22;590;48.772;8.846;2023-09-08T02:45:33;14.70;84.60
254;DHT22;590;48.772;8.846;2023-09-08T02:48:02;14.70;84.30
254;DHT22;590;48.772;8.846;2023-09-08T02:50:30;14.60;84.00
254;DHT22;590;48.772;8.846;2023-09-08T02:53:00;14.60;84.20
254;DHT22;590;48.772;8.846;2023-09-08T02:55:28;14.50;84.90
254;DHT22;590;48.772;8.846;2023-09-08T02:57:56;14.50;86.40
254;DHT22;590;48.772;8.846;2023-09-08T03:00:25;14.60;85.40
254;DHT22;590;48.772;8.846;2023-09-08T03:02:53;14.60;85.40
254;DHT22;590;48.772;8.846;2023-09-08T03:05:21;14.50;85.40
254;DHT22;590;48.772;8.846;2023-09-08T03:07:49;14.50;84.50
254;DHT22;590;48.772;8.846;2023-09-08T03:10:19;14.40;84.10
254;DHT22;590;48.772;8.846;2023-09-08T03:12:47;14.40;84.40
254;DHT22;590;48.772;8.846;2023-09-08T03:15:15;14.40;85.30
254;DHT22;590;48.772;8.846;2023-09-08T03:17:43;14.40;86.50
254;DHT22;590;48.772;8.846;2023-09-08T03:20:11;14.40;86.70
254;DHT22;590;48.772;8.846;2023-09-08T03:22:40;14.40;87.50
254;DHT22;590;48.772;8.846;2023-09-08T03:25:08;14.50;87.60
254;DHT22;590;48.772;8.846;2023-09-08T03:27:37;14.50;88.00
254;DHT22;590;48.772;8.846;2023-09-08T03:30:06;14.50;88.20
254;DHT22;590;48.772;8.846;2023-09-08T03:32:35;14.50;88.30
254;DHT22;590;48.772;8.846;2023-09-08T03:35:04;14.40;87.80
254;DHT22;590;48.772;8.846;2023-09-08T03:37:34;14.40;87.90
254;DHT22;590;48.772;8.846;2023-09-08T03:40:03;14.40;87.90
254;DHT22;590;48.772;8.846;2023-09-08T03:42:33;14.50;89.50
254;DHT22;590;48.772;8.846;2023-09-08T03:45:04;14.50;89.00
254;DHT22;590;48.772;8.846;2023-09-08T03:47:32;14.50;88.60
254;DHT22;590;48.772;8.846;2023-09-08T03:50:01;14.50;89.60
254;DHT22;590;48.772;8.846;2023-09-08T03:52:29;14.50;89.90
254;DHT22;590;48.772;8.846;2023-09-08T03:54:57;14.60;90.30
254;DHT22;590;48.772;8.846;2023-09-08T03:57:25;14.60;90.30
254;DHT22;590;48.772;8.846;2023-09-08T03:59:53;14.60;90.40
254;DHT22;590;48.772;8.846;2023-09-08T04:02:23;14.60;90.00
254;DHT22;590;48.772;8.846;2023-09-08T04:04:51;14.50;89.00
254;DHT22;590;48.772;8.846;2023-09-08T04:07:19;14.50;86.30
254;DHT22;590;48.772;8.846;2023-09-08T04:09:47;14.40;85.00
254;DHT22;590;48.772;8.846;2023-09-08T04:12:15;14.30;85.10
254;DHT22;590;48.772;8.846;2023-09-08T04:14:43;14.20;85.40
254;DHT22;590;48.772;8.846;2023-09-08T04:17:11;14.20;85.50
254;DHT22;590;48.772;8.846;2023-09-08T04:19:40;14.10;85.50
254;DHT22;590;48.772;8.846;2023-09-08T04:22:08;14.10;86.00
254;DHT22;590;48.772;8.846;2023-09-08T04:24:36;14.10;88.90
254;DHT22;590;48.772;8.846;2023-09-08T04:27:05;14.00;89.70
254;DHT22;590;48.772;8.846;2023-09-08T04:29:33;14.10;89.80
254;DHT22;590;48.772;8.846;2023-09-08T04:32:01;14.10;90.30
254;DHT22;590;48.772;8.846;2023-09-08T04:34:36;14.20;90.00
254;DHT22;590;48.772;8.846;2023-09-08T04:37:06;14.20;90.10
254;DHT22;590;48.772;8.846;2023-09-08T04:39:35;14.30;90.00
254;DHT22;590;48.772;8.846;2023-09-08T04:42:04;14.30;90.70
254;DHT22;590;48.772;8.846;2023-09-08T04:44:33;14.40;90.80
254;DHT22;590;48.772;8.846;2023-09-08T04:47:01;14.40;91.10
254;DHT22;590;48.772;8.846;2023-09-08T04:49:29;14.30;90.20
254;DHT22;590;48.772;8.846;2023-09-08T04:51:57;14.30;88.70
254;DHT22;590;48.772;8.846;2023-09-08T04:54:26;14.20;88.20
254;DHT22;590;48.772;8.846;2023-09-08T04:56:55;14.10;86.80
254;DHT22;590;48.772;8.846;2023-09-08T04:59:42;14.10;86.70
254;DHT22;590;48.772;8.846;2023-09-08T05:02:10;14.00;87.00
254;DHT22;590;48.772;8.846;2023-09-08T05:04:38;14.00;87.50
254;DHT22;590;48.772;8.846;2023-09-08T05:07:06;14.00;88.00
254;DHT22;590;48.772;8.846;2023-09-08T05:09:36;14.00;88.70
254;DHT22;590;48.772;8.846;2023-09-08T05:12:04;14.00;90.20
254;DHT22;590;48.772;8.846;2023-09-08T05:14:32;14.20;90.50
254;DHT22;590;48.772;8.846;2023-09-08T05:17:00;14.30;90.20
254;DHT22;590;48.772;8.846;2023-09-08T05:19:28;14.40;90.00
254;DHT22;590;48.772;8.846;2023-09-08T05:21:57;14.50;89.10
254;DHT22;590;48.772;8.846;2023-09-08T05:24:25;14.60;88.40
254;DHT22;590;48.772;8.846;2023-09-08T05:26:55;14.70;88.50
254;DHT22;590;48.772;8.846;2023-09-08T05:29:23;14.80;86.70
254;DHT22;590;48.772;8.846;2023-09-08T05:31:51;14.90;87.10
254;DHT22;590;48.772;8.846;2023-09-08T05:34:19;15.00;86.90
254;DHT22;590;48.772;8.846;2023-09-08T05:36:47;15.20;86.30
254;DHT22;590;48.772;8.846;2023-09-08T05:39:15;15.30;85.40
254;DHT22;590;48.772;8.846;2023-09-08T05:41:45;15.40;84.80
254;DHT22;590;48.772;8.846;2023-09-08T05:44:14;15.60;83.90
254;DHT22;590;48.772;8.846;2023-09-08T05:46:42;15.70;84.00
254;DHT22;590;48.772;8.846;2023-09-08T05:49:11;15.90;84.20
254;DHT22;590;48.772;8.846;2023-09-08T05:51:39;16.20;84.00
254;DHT22;590;48.772;8.846;2023-09-08T05:54:07;16.30;81.90
254;DHT22;590;48.772;8.846;2023-09-08T05:56:36;16.50;81.10
254;DHT22;590;48.772;8.846;2023-09-08T05:59:05;16.70;80.10
254;DHT22;590;48.772;8.846;2023-09-08T06:01:35;16.80;78.60
254;DHT22;590;48.772;8.846;2023-09-08T06:04:04;16.90;78.10
254;DHT22;590;48.772;8.846;2023-09-08T06:06:32;17.10;78.00
254;DHT22;590;48.772;8.846;2023-09-08T06:09:00;17.30;76.30
254;DHT22;590;48.772;8.846;2023-09-08T06:11:29;17.50;73.70
254;DHT22;590;48.772;8.846;2023-09-08T06:13:57;17.60;73.90
254;DHT22;590;48.772;8.846;2023-09-08T06:16:26;17.80;73.40
254;DHT22;590;48.772;8.846;2023-09-08T06:18:56;18.00;71.60
254;DHT22;590;48.772;8.846;2023-09-08T06:21:24;18.10;70.30
254;DHT22;590;48.772;8.846;2023-09-08T06:23:52;18.40;69.00
254;DHT22;590;48.772;8.846;2023-09-08T06:26:20;18.60;68.00
254;DHT22;590;48.772;8.846;2023-09-08T06:28:48;18.90;67.90
254;DHT22;590;48.772;8.846;2023-09-08T06:31:16;19.10;66.10
254;DHT22;590;48.772;8.846;2023-09-08T06:33:44;19.40;65.50
254;DHT22;590;48.772;8.846;2023-09-08T06:36:14;19.60;63.60
254;DHT22;590;48.772;8.846;2023-09-08T06:38:42;19.80;61.10
254;DHT22;590;48.772;8.846;2023-09-08T06:41:11;20.00;60.70
254;DHT22;590;48.772;8.846;2023-09-08T06:43:39;20.10;59.30
254;DHT22;590;48.772;8.846;2023-09-08T06:46:07;20.30;57.20
254;DHT22;590;48.772;8.846;2023-09-08T06:48:35;20.50;56.30
254;DHT22;590;48.772;8.846;2023-09-08T06:51:04;20.70;55.30
254;DHT22;590;48.772;8.846;2023-09-08T06:53:33;20.90;54.40
254;DHT22;590;48.772;8.846;2023-09-08T06:56:01;21.20;52.70
254;DHT22;590;48.772;8.846;2023-09-08T06:58:29;21.50;52.10
254;DHT22;590;48.772;8.846;2023-09-08T07:00:57;21.70;50.60
254;DHT22;590;48.772;8.846;2023-09-08T07:03:26;21.90;47.80
254;DHT22;590;48.772;8.846;2023-09-08T07:05:54;22.10;46.20
254;DHT22;590;48.772;8.846;2023-09-08T07:08:22;22.30;46.90
254;DHT22;590;48.772;8.846;2023-09-08T07:10:53;22.60;46.30
254;DHT22;590;48.772;8.846;2023-09-08T07:13:21;22.80;44.70
254;DHT22;590;48.772;8.846;2023-09-08T07:15:49;23.10;43.00
254;DHT22;590;48.772;8.846;2023-09-08T07:18:17;23.40;43.00
254;DHT22;590;48.772;8.846;2023-09-08T07:20:46;23.60;40.20
254;DHT22;590;48.772;8.846;2023-09-08T07:23:16;23.90;39.60
254;DHT22;590;48.772;8.846;2023-09-08T07:25:46;24.30;38.20
254;DHT22;590;48.772;8.846;2023-09-08T07:28:16;24.40;35.00
254;DHT22;590;48.772;8.846;2023-09-08T07:30:44;24.60;34.40
254;DHT22;590;48.772;8.846;2023-09-08T07:33:12;24.80;34.50
254;DHT22;590;48.772;8.846;2023-09-08T07:35:40;25.00;33.10
254;DHT22;590;48.772;8.846;2023-09-08T07:38:08;25.20;32.70
254;DHT22;590;48.772;8.846;2023-09-08T07:40:36;25.50;30.50
254;DHT22;590;48.772;8.846;2023-09-08T07:43:04;25.60;29.40
254;DHT22;590;48.772;8.846;2023-09-08T07:45:34;25.80;30.00
254;DHT22;590;48.772;8.846;2023-09-08T07:48:02;26.00;29.40
254;DHT22;590;48.772;8.846;2023-09-08T07:50:31;26.20;28.40
254;DHT22;590;48.772;8.846;2023-09-08T07:52:59;26.20;27.70
254;DHT22;590;48.772;8.846;2023-09-08T07:55:27;26.40;28.40
254;DHT22;590;48.772;8.846;2023-09-08T07:57:57;26.50;26.10
254;DHT22;590;48.772;8.846;2023-09-08T08:00:25;26.70;26.90
254;DHT22;590;48.772;8.846;2023-09-08T08:02:56;26.80;25.90
254;DHT22;590;48.772;8.846;2023-09-08T08:05:25;26.90;26.10
254;DHT22;590;48.772;8.846;2023-09-08T08:07:53;27.00;25.00
254;DHT22;590;48.772;8.846;2023-09-08T08:10:21;27.10;25.50
254;DHT22;590;48.772;8.846;2023-09-08T08:12:49;27.20;25.50
254;DHT22;590;48.772;8.846;2023-09-08T08:15:19;27.30;25.10
254;DHT22;590;48.772;8.846;2023-09-08T08:17:47;27.40;23.60
254;DHT22;590;48.772;8.846;2023-09-08T08:20:17;27.50;22.90
254;DHT22;590;48.772;8.846;2023-09-08T08:22:46;27.60;23.40
254;DHT22;590;48.772;8.846;2023-09-08T08:25:14;27.80;24.00
254;DHT22;590;48.772;8.846;2023-09-08T08:27:42;28.00;23.40
254;DHT22;590;48.772;8.846;2023-09-08T08:30:12;28.10;21.00
254;DHT22;590;48.772;8.846;2023-09-08T08:32:40;28.20;20.40
254;DHT22;590;48.772;8.846;2023-09-08T08:35:08;28.30;20.30
254;DHT22;590;48.772;8.846;2023-09-08T08:37:39;28.50;21.10
254;DHT22;590;48.772;8.846;2023-09-08T08:40:09;28.60;18.70
254;DHT22;590;48.772;8.846;2023-09-08T08:42:39;28.60;18.20
254;DHT22;590;48.772;8.846;2023-09-08T08:45:08;28.70;18.20
254;DHT22;590;48.772;8.846;2023-09-08T08:47:36;28.80;18.30
254;DHT22;590;48.772;8.846;2023-09-08T08:50:08;28.80;18.30
254;DHT22;590;48.772;8.846;2023-09-08T08:52:39;28.90;18.40
254;DHT22;590;48.772;8.846;2023-09-08T08:55:07;29.00;18.20
254;DHT22;590;48.772;8.846;2023-09-08T08:57:37;28.90;17.90
254;DHT22;590;48.772;8.846;2023-09-08T09:00:07;28.80;16.40
254;DHT22;590;48.772;8.846;2023-09-08T09:02:39;28.80;16.40
254;DHT22;590;48.772;8.846;2023-09-08T09:05:08;28.80;17.20
254;DHT22;590;48.772;8.846;2023-09-08T09:07:36;28.80;17.40
254;DHT22;590;48.772;8.846;2023-09-08T09:10:07;28.80;17.70
254;DHT22;590;48.772;8.846;2023-09-08T09:12:36;28.70;17.50
254;DHT22;590;48.772;8.846;2023-09-08T09:15:06;28.60;18.20
254;DHT22;590;48.772;8.846;2023-09-08T09:17:35;28.50;17.20
254;DHT22;590;48.772;8.846;2023-09-08T09:20:13;28.50;19.40
254;DHT22;590;48.772;8.846;2023-09-08T09:22:44;28.40;19.40
254;DHT22;590;48.772;8.846;2023-09-08T09:25:22;28.40;20.20
254;DHT22;590;48.772;8.846;2023-09-08T09:27:51;28.30;19.10
254;DHT22;590;48.772;8.846;2023-09-08T09:30:21;28.30;19.40
254;DHT22;590;48.772;8.846;2023-09-08T09:32:58;28.30;20.10
254;DHT22;590;48.772;8.846;2023-09-08T09:35:40;28.30;19.20
254;DHT22;590;48.772;8.846;2023-09-08T09:38:09;28.20;20.20
254;DHT22;590;48.772;8.846;2023-09-08T09:40:38;28.20;20.30
254;DHT22;590;48.772;8.846;2023-09-08T09:43:07;28.30;20.30
254;DHT22;590;48.772;8.846;2023-09-08T09:45:36;28.30;20.60
254;DHT22;590;48.772;8.846;2023-09-08T09:48:06;28.20;19.00
254;DHT22;590;48.772;8.846;2023-09-08T09:50:36;28.20;19.50
254;DHT22;590;48.772;8.846;2023-09-08T09:53:08;28.20;18.80
254;DHT22;590;48.772;8.846;2023-09-08T09:55:39;28.20;19.50
254;DHT22;590;48.772;8.846;2023-09-08T09:58:08;28.20;19.50
254;DHT22;590;48.772;8.846;2023-09-08T10:00:38;28.20;20.00
254;DHT22;590;48.772;8.846;2023-09-08T10:03:08;28.30;20.50
254;DHT22;590;48.772;8.846;2023-09-08T10:05:38;28.40;20.40
254;DHT22;590;48.772;8.846;2023-09-08T10:08:06;28.60;21.50
254;DHT22;590;48.772;8.846;2023-09-08T10:10:34;28.70;22.20
254;DHT22;590;48.772;8.846;2023-09-08T10:13:06;28.90;20.90
254;DHT22;590;48.772;8.846;2023-09-08T10:15:34;29.00;20.10
254;DHT22;590;48.772;8.846;2023-09-08T10:18:04;29.00;20.20
254;DHT22;590;48.772;8.846;2023-09-08T10:20:34;29.00;19.30
254;DHT22;590;48.772;8.846;2023-09-08T10:23:07;29.00;18.10
254;DHT22;590;48.772;8.846;2023-09-08T10:25:43;29.00;20.10
254;DHT22;590;48.772;8.846;2023-09-08T10:28:13;29.00;19.40
254;DHT22;590;48.772;8.846;2023-09-08T10:30:42;29.00;19.20
254;DHT22;590;48.772;8.846;2023-09-08T10:33:11;28.90;17.30
254;DHT22;590;48.772;8.846;2023-09-08T10:35:40;28.90;18.00
254;DHT22;590;48.772;8.846;2023-09-08T10:38:24;28.80;17.80
254;DHT22;590;48.772;8.846;2023-09-08T10:40:53;28.80;18.50
254;DHT22;590;48.772;8.846;2023-09-08T10:43:24;28.80;17.70
254;DHT22;590;48.772;8.846;2023-09-08T10:45:52;28.80;18.10
254;DHT22;590;48.772;8.846;2023-09-08T10:48:20;28.80;16.40
254;DHT22;590;48.772;8.846;2023-09-08T10:50:48;28.80;18.30
254;DHT22;590;48.772;8.846;2023-09-08T10:53:17;29.00;18.70
254;DHT22;590;48.772;8.846;2023-09-08T10:55:46;29.10;19.10
254;DHT22;590;48.772;8.846;2023-09-08T10:58:38;29.20;19.30
254;DHT22;590;48.772;8.846;2023-09-08T11:01:13;29.30;16.70
254;DHT22;590;48.772;8.846;2023-09-08T11:03:45;29.30;17.20
254;DHT22;590;48.772;8.846;2023-09-08T11:06:17;29.20;17.60
254;DHT22;590;48.772;8.846;2023-09-08T11:08:46;29.20;17.80
254;DHT22;590;48.772;8.846;2023-09-08T11:11:16;29.20;17.60
254;DHT22;590;48.772;8.846;2023-09-08T11:13:46;29.10;17.80
254;DHT22;590;48.772;8.846;2023-09-08T11:16:14;29.20;18.20
254;DHT22;590;48.772;8.846;2023-09-08T11:18:43;29.20;18.50
254;DHT22;590;48.772;8.846;2023-09-08T11:21:11;29.20;17.40
254;DHT22;590;48.772;8.846;2023-09-08T11:23:39;29.30;17.70
254;DHT22;590;48.772;8.846;2023-09-08T11:26:07;29.40;17.60
254;DHT22;590;48.772;8.846;2023-09-08T11:28:36;29.40;17.70
254;DHT22;590;48.772;8.846;2023-09-08T11:31:07;29.40;17.70
254;DHT22;590;48.772;8.846;2023-09-08T11:33:35;29.50;16.80
254;DHT22;590;48.772;8.846;2023-09-08T11:36:12;29.60;16.90
254;DHT22;590;48.772;8.846;2023-09-08T11:38:43;29.60;16.90
254;DHT22;590;48.772;8.846;2023-09-08T11:41:11;29.50;17.40
254;DHT22;590;48.772;8.846;2023-09-08T11:43:40;29.50;18.00
254;DHT22;590;48.772;8.846;2023-09-08T11:46:10;29.50;17.40
254;DHT22;590;48.772;8.846;2023-09-08T11:48:39;29.40;17.50
254;DHT22;590;48.772;8.846;2023-09-08T11:51:07;29.40;18.40
254;DHT22;590;48.772;8.846;2023-09-08T11:53:36;29.30;18.80
254;DHT22;590;48.772;8.846;2023-09-08T11:56:04;29.40;18.60
254;DHT22;590;48.772;8.846;2023-09-08T11:58:33;29.40;17.80
254;DHT22;590;48.772;8.846;2023-09-08T12:01:02;29.50;17.90
254;DHT22;590;48.772;8.846;2023-09-08T12:03:33;29.50;18.00
254;DHT22;590;48.772;8.846;2023-09-08T12:06:01;29.60;16.90
254;DHT22;590;48.772;8.846;2023-09-08T12:08:30;29.60;17.00
254;DHT22;590;48.772;8.846;2023-09-08T12:10:58;29.60;16.90
254;DHT22;590;48.772;8.846;2023-09-08T12:13:26;29.60;16.90
254;DHT22;590;48.772;8.846;2023-09-08T12:15:54;29.60;17.90
254;DHT22;590;48.772;8.846;2023-09-08T12:18:39;29.50;17.90
254;DHT22;590;48.772;8.846;2023-09-08T12:21:07;29.60;19.00
254;DHT22;590;48.772;8.846;2023-09-08T12:23:47;29.60;17.90
254;DHT22;590;48.772;8.846;2023-09-08T12:26:16;29.60;18.60
254;DHT22;590;48.772;8.846;2023-09-08T12:28:45;29.60;17.50
254;DHT22;590;48.772;8.846;2023-09-08T12:31:14;29.50;16.20
254;DHT22;590;48.772;8.846;2023-09-08T12:33:43;29.40;17.30
254;DHT22;590;48.772;8.846;2023-09-08T12:36:13;29.40;17.80
254;DHT22;590;48.772;8.846;2023-09-08T12:38:46;29.40;18.10
254;DHT22;590;48.772;8.846;2023-09-08T12:41:15;29.40;19.30
254;DHT22;590;48.772;8.846;2023-09-08T12:43:43;29.50;17.80
254;DHT22;590;48.772;8.846;2023-09-08T12:46:11;29.50;17.90
254;DHT22;590;48.772;8.846;2023-09-08T12:48:39;29.60;18.20
254;DHT22;590;48.772;8.846;2023-09-08T12:51:08;29.70;17.20
254;DHT22;590;48.772;8.846;2023-09-08T12:53:36;29.60;16.10
254;DHT22;590;48.772;8.846;2023-09-08T12:56:04;29.70;17.00
254;DHT22;590;48.772;8.846;2023-09-08T12:58:32;29.60;16.70
254;DHT22;590;48.772;8.846;2023-09-08T13:01:01;29.50;16.10
254;DHT22;590;48.772;8.846;2023-09-08T13:03:32;29.50;17.30
254;DHT22;590;48.772;8.846;2023-09-08T13:06:00;29.50;18.10
254;DHT22;590;48.772;8.846;2023-09-08T13:08:29;29.50;18.10
254;DHT22;590;48.772;8.846;2023-09-08T13:10:57;29.50;18.30
254;DHT22;590;48.772;8.846;2023-09-08T13:13:25;29.50;17.90
254;DHT22;590;48.772;8.846;2023-09-08T13:15:56;29.60;17.40
254;DHT22;590;48.772;8.846;2023-09-08T13:18:24;29.60;16.80
254;DHT22;590;48.772;8.846;2023-09-08T13:20:52;29.60;16.80
254;DHT22;590;48.772;8.846;2023-09-08T13:23:20;29.60;16.70
254;DHT22;590;48.772;8.846;2023-09-08T13:25:50;29.60;16.10
254;DHT22;590;48.772;8.846;2023-09-08T13:28:18;29.60;16.30
254;DHT22;590;48.772;8.846;2023-09-08T13:30:46;29.60;17.00
254;DHT22;590;48.772;8.846;2023-09-08T13:33:14;29.70;17.20
254;DHT22;590;48.772;8.846;2023-09-08T13:35:42;29.70;17.40
254;DHT22;590;48.772;8.846;2023-09-08T13:38:10;29.70;17.00
254;DHT22;590;48.772;8.846;2023-09-08T13:40:38;29.70;16.40
254;DHT22;590;48.772;8.846;2023-09-08T13:43:08;29.60;16.50
254;DHT22;590;48.772;8.846;2023-09-08T13:45:38;29.40;16.80
254;DHT22;590;48.772;8.846;2023-09-08T13:48:06;29.40;16.90
254;DHT22;590;48.772;8.846;2023-09-08T13:50:38;29.40;17.50
254;DHT22;590;48.772;8.846;2023-09-08T13:53:09;29.40;16.80
254;DHT22;590;48.772;8.846;2023-09-08T13:55:40;29.40;15.70
254;DHT22;590;48.772;8.846;2023-09-08T13:58:11;29.30;16.00
254;DHT22;590;48.772;8.846;2023-09-08T14:00:40;29.20;16.60
254;DHT22;590;48.772;8.846;2023-09-08T14:03:11;29.20;17.20
254;DHT22;590;48.772;8.846;2023-09-08T14:05:43;29.20;17.90
254;DHT22;590;48.772;8.846;2023-09-08T14:08:18;29.20;17.40
254;DHT22;590;48.772;8.846;2023-09-08T14:11:06;29.10;17.40
254;DHT22;590;48.772;8.846;2023-09-08T14:13:47;29.10;17.30
254;DHT22;590;48.772;8.846;2023-09-08T14:16:17;29.00;18.20
254;DHT22;590;48.772;8.846;2023-09-08T14:18:45;29.00;16.80
254;DHT22;590;48.772;8.846;2023-09-08T14:21:13;29.00;17.00
254;DHT22;590;48.772;8.846;2023-09-08T14:23:41;29.00;17.20
254;DHT22;590;48.772;8.846;2023-09-08T14:26:09;28.90;18.20
254;DHT22;590;48.772;8.846;2023-09-08T14:28:38;28.90;17.50
254;DHT22;590;48.772;8.846;2023-09-08T14:31:07;28.90;18.10
254;DHT22;590;48.772;8.846;2023-09-08T14:33:36;28.90;18.50
254;DHT22;590;48.772;8.846;2023-09-08T14:36:04;28.80;16.70
254;DHT22;590;48.772;8.846;2023-09-08T14:38:32;28.80;18.40
254;DHT22;590;48.772;8.846;2023-09-08T14:41:01;28.70;18.80
254;DHT22;590;48.772;8.846;2023-09-08T14:43:29;28.70;17.40
254;DHT22;590;48.772;8.846;2023-09-08T14:45:58;28.70;17.60
254;DHT22;590;48.772;8.846;2023-09-08T14:48:31;28.70;17.70
254;DHT22;590;48.772;8.846;2023-09-08T14:51:00;28.70;18.50
254;DHT22;590;48.772;8.846;2023-09-08T14:53:28;28.70;18.30
254;DHT22;590;48.772;8.846;2023-09-08T14:55:58;28.70;18.20
254;DHT22;590;48.772;8.846;2023-09-08T14:58:26;28.70;17.90
254;DHT22;590;48.772;8.846;2023-09-08T15:00:58;28.60;18.40
254;DHT22;590;48.772;8.846;2023-09-08T15:03:32;28.60;19.20
254;DHT22;590;48.772;8.846;2023-09-08T15:06:01;28.60;19.10
254;DHT22;590;48.772;8.846;2023-09-08T15:08:29;28.60;19.60
254;DHT22;590;48.772;8.846;2023-09-08T15:10:57;28.60;19.40
254;DHT22;590;48.772;8.846;2023-09-08T15:13:25;28.60;19.30
254;DHT22;590;48.772;8.846;2023-09-08T15:15:53;28.50;19.50
254;DHT22;590;48.772;8.846;2023-09-08T15:18:21;28.50;20.10
254;DHT22;590;48.772;8.846;2023-09-08T15:20:54;28.40;19.60
254;DHT22;590;48.772;8.846;2023-09-08T15:23:22;28.40;18.80
254;DHT22;590;48.772;8.846;2023-09-08T15:25:51;28.40;18.90
254;DHT22;590;48.772;8.846;2023-09-08T15:28:19;28.40;18.30
254;DHT22;590;48.772;8.846;2023-09-08T15:30:48;28.30;18.70
254;DHT22;590;48.772;8.846;2023-09-08T15:33:17;28.40;18.40
254;DHT22;590;48.772;8.846;2023-09-08T15:35:46;28.40;19.30
254;DHT22;590;48.772;8.846;2023-09-08T15:38:16;28.40;18.50
254;DHT22;590;48.772;8.846;2023-09-08T15:41:13;28.30;18.20
254;DHT22;590;48.772;8.846;2023-09-08T15:43:48;28.30;17.90
254;DHT22;590;48.772;8.846;2023-09-08T15:46:18;28.20;18.10
254;DHT22;590;48.772;8.846;2023-09-08T15:48:46;28.10;17.50
254;DHT22;590;48.772;8.846;2023-09-08T15:51:15;28.10;18.00
254;DHT22;590;48.772;8.846;2023-09-08T15:53:44;28.10;18.00
254;DHT22;590;48.772;8.846;2023-09-08T15:56:12;28.10;17.80
254;DHT22;590;48.772;8.846;2023-09-08T15:58:41;28.10;18.70
254;DHT22;590;48.772;8.846;2023-09-08T16:01:10;28.10;18.00
254;DHT22;590;48.772;8.846;2023-09-08T16:03:39;28.10;18.20
254;DHT22;590;48.772;8.846;2023-09-08T16:06:07;28.10;19.70
254;DHT22;590;48.772;8.846;2023-09-08T16:08:36;28.00;19.80
254;DHT22;590;48.772;8.846;2023-09-08T16:11:06;28.00;20.20
254;DHT22;590;48.772;8.846;2023-09-08T16:13:34;28.00;19.30
254;DHT22;590;48.772;8.846;2023-09-08T16:16:03;27.90;19.80
254;DHT22;590;48.772;8.846;2023-09-08T16:18:31;27.90;20.50
254;DHT22;590;48.772;8.846;2023-09-08T16:20:59;27.90;20.70
254;DHT22;590;48.772;8.846;2023-09-08T16:23:27;27.90;20.50
254;DHT22;590;48.772;8.846;2023-09-08T16:25:56;27.90;19.80
254;DHT22;590;48.772;8.846;2023-09-08T16:28:26;27.90;18.60
254;DHT22;590;48.772;8.846;2023-09-08T16:30:54;27.80;18.40
254;DHT22;590;48.772;8.846;2023-09-08T16:33:22;27.80;18.50
254;DHT22;590;48.772;8.846;2023-09-08T16:35:50;27.70;18.60
254;DHT22;590;48.772;8.846;2023-09-08T16:38:18;27.70;18.10
254;DHT22;590;48.772;8.846;2023-09-08T16:40:46;27.60;18.70
254;DHT22;590;48.772;8.846;2023-09-08T16:43:15;27.60;18.50
254;DHT22;590;48.772;8.846;2023-09-08T16:45:45;27.60;19.30
254;DHT22;590;48.772;8.846;2023-09-08T16:48:13;27.50;18.90